x

9440910 - Toke Point, Wa (tokw1) Weather Station

6:12pm - Mon 10th Dec 2018 All times are PST. -8 hours from GMT.

  • Wind
    9mph, 11mph gusts
  • Sea Temp 47°f
  • Air Temp 47°f
  • Sea Pressure 1023.1mb
  • 9440910 - Toke Point, Wa
  • 9440910 - Toke Point, Wa

More Historic Weather Station data

Upgrade to MSW Pro to gain access to the past 30 days of data for over 8000 Wavebouys and Weather Stations around the globe.

Join

Comparision Forecast

View Surf forecast
   
Mon 12/10 6:12pm 9 11 mph 1023.1mb 47f 47f
6:06pm 9 11 mph 1023.1mb 47f 48f
6:00pm 10 13 mph 1023.2mb 47f 48f
5:54pm 9 11 mph 1023.2mb 47f 48f
5:48pm 10 13 mph 1023.3mb 47f 48f
5:42pm 9 10 mph 1023.4mb 47f 48f
5:36pm 8 10 mph 1023.5mb 47f 48f
5:30pm 7 10 mph 1023.5mb 47f 48f
5:24pm 7 10 mph 1023.5mb 47f 48f
5:18pm 8 9 mph 1023.5mb 47f 48f
5:12pm 8 10 mph 1023.6mb 47f 48f
5:06pm 8 10 mph 1023.6mb 47f 48f
5:00pm 9 10 mph 1023.5mb 47f 49f
4:54pm 9 10 mph 1023.4mb 47f 49f
4:48pm 9 11 mph 1023.4mb 47f 49f
4:42pm 9 11 mph 1023.4mb 47f 49f
4:36pm 10 11 mph 1023.5mb 47f 49f
4:30pm 10 14 mph 1023.6mb 47f 49f
4:24pm 11 14 mph 1023.5mb 47f 49f
4:18pm 11 13 mph 1023.6mb 47f 49f
4:12pm 10 11 mph 1023.7mb 47f 49f
4:06pm 10 11 mph 1023.7mb 47f 49f
4:00pm 10 11 mph 1023.7mb 47f 49f
3:54pm 10 13 mph 1023.8mb 47f 49f
3:48pm 10 13 mph 1023.9mb 47f 49f
3:42pm 10 13 mph 1023.8mb 47f 49f
3:36pm 11 14 mph 1023.8mb 47f 49f
3:30pm 11 14 mph - - -
3:24pm 11 14 mph 1023.8mb 47f 49f
3:18pm 11 14 mph 1023.7mb 47f 49f
3:12pm 13 14 mph 1023.8mb 47f 49f
3:06pm 10 11 mph 1023.9mb 47f 49f
3:00pm 9 11 mph 1024mb 47f 49f
2:54pm 9 10 mph 1024.1mb 47f 49f
2:48pm 8 9 mph 1024.2mb 47f 49f
2:42pm 8 9 mph 1024.3mb 47f 49f
2:36pm 8 10 mph 1024.2mb 47f 49f
2:30pm 8 9 mph 1024.2mb 47f 49f
2:24pm 8 10 mph 1024.1mb 47f 49f
2:18pm 8 9 mph 1024.1mb 47f 49f
2:12pm 9 10 mph 1024.1mb 47f 49f
2:06pm 8 9 mph 1024.1mb 47f 49f
2:00pm 8 11 mph 1024mb 47f 50f
1:54pm 9 11 mph 1024mb 47f 50f
1:48pm 10 11 mph 1024mb 47f 50f
1:42pm 9 11 mph 1024mb 47f 50f
1:36pm 9 10 mph 1024mb 47f 50f
1:30pm 9 10 mph 1024.1mb 47f 50f
1:24pm 9 10 mph 1024.1mb 47f 49f
1:18pm 9 11 mph 1024.1mb 47f 49f
1:12pm 9 11 mph 1024.1mb 47f 49f
1:06pm 9 10 mph 1024.1mb 47f 49f
1:00pm 9 10 mph 1024mb 47f 49f
12:54pm 8 9 mph 1024.1mb 47f 49f
12:48pm 8 11 mph 1024.2mb 47f 49f
12:42pm 9 11 mph 1024.4mb 47f 49f
12:36pm 10 13 mph 1024.5mb 47f 49f
12:30pm 9 11 mph 1024.5mb 47f 49f
12:24pm 8 11 mph 1024.5mb 47f 48f
12:18pm 9 14 mph 1024.6mb 47f 49f
12:12pm 10 13 mph 1024.6mb 47f 49f
12:06pm 9 11 mph 1024.7mb 47f 49f
12:00pm 8 10 mph 1024.7mb 47f -
11:54am 9 10 mph 1024.8mb 47f 48f
11:48am 8 9 mph 1024.8mb 47f 48f
11:42am 7 10 mph 1024.9mb 47f 48f
11:36am 9 11 mph 1025mb 47f 48f
11:30am 10 13 mph 1024.9mb 47f 48f
11:24am 10 13 mph 1025mb 47f 48f
11:18am 10 14 mph 1025mb 47f 48f
11:12am 10 11 mph 1025.1mb 46f 47f
11:06am 9 14 mph 1025.2mb 46f 47f
11:00am 11 14 mph 1025.2mb 46f 47f
10:54am 11 15 mph 1025.2mb 46f 47f
10:48am 10 13 mph 1025.3mb 46f 47f
10:42am 9 14 mph 1025.3mb 46f 47f
10:36am 13 16 mph 1025.3mb 46f 47f
10:30am 10 14 mph 1025.3mb 46f 46f
10:24am 9 13 mph 1025.5mb 46f 46f
10:18am 9 11 mph 1025.5mb 46f 47f
10:12am 6 8 mph 1025.5mb 46f 47f
10:06am  -  2 mph 1025.4mb 46f 47f
10:00am  -  1 mph 1025.4mb 46f 46f
9:54am 1 3 mph 1025.4mb 46f 46f
9:48am 2 6 mph 1025.3mb 46f 46f
9:42am 5 8 mph 1025.2mb 46f 46f
9:36am 7 10 mph 1025.1mb 46f 46f
9:30am 8 9 mph 1025mb 46f 46f
9:24am 8 10 mph 1024.9mb 46f 46f
9:18am 9 10 mph 1024.8mb 46f 46f
9:12am 9 10 mph 1024.7mb 46f 46f
9:06am 10 11 mph 1024.7mb 46f 46f
9:00am 7 9 mph - - -
8:54am 3 8 mph 1024.7mb 46f 46f
8:48am 6 9 mph 1024.6mb 46f 46f
8:42am 5 8 mph 1024.6mb 46f 45f
8:36am  -  2 mph 1024.6mb 46f 45f
8:30am 1 2 mph - - -
8:24am  -  3 mph 1024.4mb 46f 45f
8:18am  -  2 mph 1024.4mb 46f 45f
8:12am 2 3 mph 1024.4mb 46f 45f
8:06am 1 3 mph 1024.3mb 46f 45f
8:00am  -  2 mph 1024.2mb 46f 45f
7:54am 1 3 mph 1024.1mb 46f 45f
7:48am  -  3 mph 1024.1mb 46f 45f
7:42am 1 6 mph 1024.1mb 46f 45f
7:36am 3 6 mph 1024.1mb 46f 45f
7:30am 3 6 mph 1024.1mb 46f 45f
7:24am  -  1 mph 1024.1mb 46f 45f
7:18am 1 2 mph 1024mb 46f 45f
7:12am  -  3 mph 1023.9mb 46f 45f
7:06am 2 3 mph 1023.9mb 46f 45f
7:00am 2 3 mph 1023.9mb 46f 45f
6:54am 2 3 mph 1023.9mb 46f 45f
6:48am 1 2 mph 1023.9mb 46f 45f
6:42am  -  1 mph 1023.8mb 46f 45f
6:36am  -  1 mph 1023.8mb 46f 45f
6:30am  -  2 mph 1023.7mb 46f 45f
6:24am  -  3 mph 1023.7mb 46f 45f
6:18am 3 8 mph 1023.6mb 46f 46f
6:12am 7 9 mph 1023.5mb 47f 46f
6:06am 7 9 mph 1023.5mb 47f 46f
6:00am 8 10 mph 1023.4mb 47f 46f
5:54am 8 10 mph 1023.3mb 47f 46f
5:48am 7 10 mph 1023.3mb 47f 46f
5:42am 7 9 mph 1023.2mb 47f 46f
5:36am 8 9 mph 1023.1mb 47f 46f
5:30am 8 10 mph 1023.1mb 47f 46f
5:24am 8 10 mph 1023.1mb 47f 46f
5:18am 8 10 mph 1023mb 47f 46f
5:12am 8 10 mph 1023mb 47f 46f
5:06am 9 11 mph 1022.9mb 47f 46f
5:00am 8 10 mph 1022.9mb 47f 46f
4:54am 9 11 mph 1022.9mb 47f 46f
4:48am 9 11 mph 1022.8mb 47f 46f
4:42am 10 13 mph 1023mb 47f 47f
4:36am 11 14 mph 1023mb 47f 46f
4:30am 10 13 mph 1023mb 47f 46f
4:24am 9 13 mph 1023.1mb 47f 46f
4:18am 10 11 mph 1023mb 47f 46f
4:12am 10 11 mph 1023mb 47f 47f
4:06am 9 10 mph 1023mb 47f 47f
4:00am 7 10 mph 1023mb 47f 47f
3:54am 7 9 mph 1023mb 47f 47f
3:48am 7 11 mph 1023mb 47f 47f
3:42am 6 9 mph 1022.8mb 47f 47f
3:36am 8 10 mph 1022.8mb 47f 47f
3:30am 9 11 mph 1022.8mb 47f 47f
3:24am 10 14 mph 1022.7mb 47f 47f
3:18am 13 14 mph 1022.6mb 47f 47f
3:12am 10 14 mph 1022.5mb 47f 47f
3:06am 11 14 mph 1022.4mb 47f 47f
3:00am 10 13 mph - - -
2:12am 6 8 mph 1022.2mb 47f 47f
2:06am 8 9 mph 1022mb 47f 47f
2:00am 8 10 mph 1021.9mb 47f 47f
1:54am 8 11 mph 1021.9mb 47f 47f
1:48am 9 11 mph 1021.8mb 47f 47f
1:42am 9 10 mph 1021.8mb 46f 47f
1:36am 8 10 mph 1021.8mb 46f 47f
1:30am 7 10 mph 1021.9mb 46f 47f
1:12am 9 11 mph 1021.8mb 46f 47f
1:06am 9 11 mph 1021.7mb 46f 47f
1:00am 8 11 mph 1021.6mb 46f 47f
12:54am 9 11 mph 1021.6mb 46f 47f
12:48am 9 13 mph 1021.6mb 46f 46f
12:42am 10 14 mph 1021.7mb 46f 46f
12:36am 11 14 mph 1021.7mb 46f 46f
12:30am 9 14 mph 1021.7mb 46f 46f
12:24am 11 15 mph 1021.7mb 46f 46f
12:18am 10 14 mph 1021.6mb 46f 46f
12:12am 11 15 mph 1021.6mb 46f 46f
12:06am 11 16 mph 1021.5mb 46f 46f
12:00am 10 13 mph 1021.5mb 46f 46f
Sun 12/09 11:54pm 11 13 mph 1021.5mb 46f 46f
11:48pm 10 13 mph 1021.5mb 46f 46f
11:42pm 9 13 mph 1021.6mb 46f 46f
11:36pm 11 15 mph 1021.5mb 46f 46f
11:30pm 11 14 mph 1021.5mb 46f 46f
11:24pm 11 15 mph 1021.4mb 46f 46f
11:18pm 10 13 mph 1021.3mb 46f 46f
11:12pm 9 14 mph 1021.4mb 46f 46f
11:06pm 11 14 mph 1021.2mb 46f 46f
11:00pm 9 14 mph 1021.2mb 45f 46f
10:54pm 10 13 mph 1021.1mb 45f 47f
10:48pm 8 11 mph 1021.1mb 46f 46f
10:42pm 10 14 mph 1021mb 46f 46f
10:36pm 11 15 mph 1020.9mb 45f 46f
10:30pm 10 15 mph 1020.8mb 45f -
10:24pm 14 16 mph 1020.7mb 45f 46f
10:18pm 13 15 mph 1020.7mb 45f 46f
10:12pm 13 14 mph 1020.7mb 45f 46f
10:06pm 9 13 mph 1020.6mb 45f 46f
10:00pm 10 13 mph 1020.6mb 45f 46f
9:54pm 10 14 mph 1020.5mb 46f 46f
9:48pm 11 14 mph 1020.5mb 45f 46f
9:42pm 11 13 mph 1020.5mb 46f 46f
9:36pm 9 11 mph 1020.4mb 45f 46f
9:30pm 7 10 mph 1020.4mb 45f 46f
9:24pm 8 11 mph 1020.4mb 45f 46f
9:18pm 11 15 mph 1020.4mb 45f 46f
9:12pm 14 15 mph 1020.2mb 45f 47f
9:06pm 11 16 mph 1020.1mb 45f 46f
9:00pm 13 16 mph 1020mb 45f 46f
8:54pm 13 15 mph 1019.9mb 45f 46f
8:48pm 11 14 mph 1020mb 45f 46f
8:42pm 11 17 mph 1020mb 46f 46f
8:36pm 16 20 mph 1019.9mb 46f 46f
8:30pm 13 16 mph - - -
8:24pm 13 15 mph 1019.8mb 46f 46f
8:18pm 13 14 mph 1019.8mb 46f 46f
8:12pm 11 15 mph 1019.8mb 46f 46f
8:06pm 11 15 mph 1019.8mb 46f 46f
8:00pm 14 16 mph 1019.8mb 46f 46f
7:12pm 14 17 mph 1019.4mb 46f 46f
7:06pm 14 17 mph 1019.4mb 46f 45f
7:00pm 14 16 mph 1019.3mb 46f 45f
5:54pm 13 15 mph 1018.9mb 46f 45f
5:48pm 14 16 mph 1019mb 46f 45f
5:42pm 14 17 mph 1018.9mb 47f 45f
5:36pm 16 18 mph 1018.9mb 46f 45f
5:30pm 14 17 mph 1018.8mb 46f 45f
5:24pm 14 16 mph 1018.8mb 47f 45f
5:18pm 14 17 mph 1018.8mb 46f 45f
5:12pm 13 16 mph 1018.7mb 47f 45f
5:06pm 11 15 mph 1018.9mb 47f 45f
5:00pm 11 13 mph 1018.7mb 47f 45f
4:48pm 10 14 mph - - -
4:42pm 13 14 mph 1018.6mb 47f 45f
4:36pm 14 16 mph 1018.5mb 47f 45f
4:30pm 16 20 mph 1018.5mb 47f 45f
4:24pm 17 20 mph 1018.3mb 47f 45f
4:18pm 16 20 mph 1018.3mb 47f 45f
4:12pm 16 21 mph 1018.2mb 47f 45f
4:06pm 16 20 mph 1018.2mb 47f 45f
4:00pm 15 17 mph 1018.3mb 47f 45f
3:54pm 11 16 mph 1018.3mb 47f 45f
3:48pm 13 15 mph 1018.3mb 47f 46f
3:42pm 14 20 mph 1018.1mb 47f 46f
3:36pm 17 21 mph 1018mb 47f 46f
3:30pm 18 22 mph 1018mb 47f 46f
3:24pm 18 22 mph 1017.9mb 47f 46f
3:18pm 17 23 mph 1017.9mb 47f 46f
3:12pm 21 24 mph 1017.9mb 47f 46f
3:06pm 20 23 mph 1017.9mb 47f 46f
3:00pm 18 22 mph 1017.9mb 47f 46f
2:54pm 17 22 mph 1017.8mb 47f 46f
2:48pm 16 21 mph 1017.7mb 47f 46f
2:42pm 15 18 mph 1017.5mb 47f 46f
2:36pm 11 16 mph 1017.5mb 47f 47f
2:30pm 13 15 mph 1017.5mb 47f 47f
2:24pm 11 16 mph 1017.6mb 47f 47f
2:18pm 9 11 mph 1017.7mb 47f 47f
2:12pm 8 13 mph 1017.8mb 47f 47f
2:06pm 7 10 mph 1017.7mb 47f 46f
2:00pm 7 8 mph 1017.8mb 47f 47f
1:54pm 6 10 mph 1017.9mb 47f 47f
1:48pm 6 8 mph 1018.1mb 47f 46f
1:42pm 6 9 mph 1018.2mb 47f 46f
1:36pm 8 9 mph 1018.2mb 47f 46f
1:30pm 8 11 mph 1018.2mb 47f 46f
1:24pm 9 13 mph 1018.2mb 47f 46f
1:18pm 9 11 mph 1018.2mb 47f 47f
1:12pm 7 13 mph 1018.1mb 47f 47f
1:06pm 8 13 mph 1018.2mb 47f 47f
1:00pm 11 15 mph 1018.2mb - -
12:54pm 9 13 mph 1018.2mb 47f 47f
12:48pm 11 14 mph 1018.2mb 47f 46f
12:42pm 9 11 mph 1018.2mb 47f 46f
12:36pm 10 11 mph 1018.3mb 47f 47f
12:30pm 10 13 mph 1018.4mb 47f 46f
12:24pm 9 10 mph 1018.5mb 47f 46f
12:18pm 9 10 mph 1018.6mb 47f 46f
12:12pm 9 10 mph 1018.7mb 47f 46f
12:06pm 7 8 mph 1018.7mb 47f 46f
12:00pm 7 8 mph 1018.8mb 47f 46f
11:54am 7 9 mph 1018.7mb 47f 46f
11:48am 7 9 mph 1018.7mb 47f 46f
11:42am 8 9 mph 1018.7mb 47f 46f
11:36am 8 9 mph 1018.8mb 47f 46f
11:30am 8 9 mph 1018.8mb 47f 47f
11:24am 9 10 mph 1018.8mb 47f 46f
11:18am 8 13 mph 1018.8mb 47f 47f
11:12am 10 13 mph 1018.9mb 47f 47f
11:06am 9 14 mph 1018.9mb 47f 47f
11:00am 10 13 mph 1019mb - -
10:12am 10 13 mph 1019.3mb 46f 48f
10:06am 8 11 mph 1019.3mb 46f 46f
10:00am 8 11 mph 1019.3mb 46f 46f
9:54am 8 11 mph 1019.2mb 46f 46f
9:48am 8 10 mph 1019.3mb 46f 46f
9:42am 7 14 mph 1019.3mb 46f 46f
9:36am 8 10 mph 1019.3mb 46f 47f
9:30am 9 11 mph 1019.2mb 46f 46f
9:24am 9 13 mph 1019.1mb 46f 47f
9:18am 10 13 mph 1019mb 46f 47f
9:12am 10 14 mph 1019.1mb 46f 47f
9:06am 11 14 mph 1019mb 46f 47f
9:00am 13 14 mph 1018.9mb 46f 47f
8:54am 13 16 mph 1018.9mb 46f 47f
8:48am 14 16 mph 1018.8mb 46f 47f
8:42am 13 16 mph 1018.8mb 46f 47f
8:36am 15 17 mph 1018.8mb 46f 47f
8:30am 14 17 mph 1018.7mb 46f 47f
8:24am 14 17 mph 1018.6mb 46f 47f
8:18am 15 18 mph 1018.5mb 46f 47f
8:12am 15 17 mph 1018.5mb 46f 47f
8:06am 14 17 mph 1018.5mb 46f 47f
8:00am 15 17 mph 1018.5mb 46f 47f
7:54am 15 17 mph 1018.5mb 46f 47f
7:48am 14 16 mph 1018.4mb 46f 47f
7:42am 14 16 mph 1018.5mb 46f 47f
7:36am 13 17 mph 1018.5mb 46f 47f
7:30am 16 18 mph 1018.5mb 46f 47f
7:24am 15 21 mph 1018.5mb 46f 48f
7:18am 18 23 mph 1018.5mb 46f 48f
7:12am 17 21 mph 1018.6mb 46f 48f
7:06am 20 21 mph 1018.4mb 46f 48f
7:00am 17 21 mph 1018.5mb 46f 48f
6:54am 16 22 mph 1018.5mb 46f 48f
6:48am 16 20 mph 1018.6mb 46f 48f
6:42am 16 21 mph 1018.6mb 46f 49f
6:36am 17 21 mph 1018.5mb 46f 49f
6:30am 16 20 mph - - -
6:24am 17 21 mph 1018.5mb 46f 50f
6:18am 15 18 mph 1018.6mb 46f 50f
6:12am 15 18 mph 1018.5mb 46f 50f
6:06am 14 18 mph 1018.4mb 46f 49f
6:00am 15 21 mph 1018.4mb 46f 50f
5:54am 15 17 mph 1018.4mb 46f 50f
5:48am 16 21 mph 1018.4mb 46f 50f
5:42am 14 18 mph 1018.3mb 46f 50f
5:36am 16 18 mph 1018.3mb 46f 50f
5:30am 14 20 mph 1018.3mb 46f 49f
5:24am 15 18 mph 1018.4mb 46f 49f
5:18am 14 18 mph 1018.4mb 46f 49f
5:12am 16 21 mph 1018.5mb 46f 49f
5:06am 16 20 mph 1018.4mb 46f 49f
5:00am 16 20 mph 1018.4mb 46f 49f
4:54am 14 20 mph 1018.6mb 46f 49f
4:48am 16 18 mph 1018.7mb 46f 49f
4:42am 15 18 mph 1018.7mb 46f 49f
4:36am 13 17 mph 1018.8mb 46f 49f
4:30am 14 18 mph 1018.9mb 46f 49f
4:24am 11 16 mph 1018.8mb 46f 50f
4:18am 11 18 mph 1019mb 47f 49f
4:12am 16 20 mph 1019mb 47f 49f
4:06am 15 22 mph 1019mb 47f 50f
4:00am 16 20 mph 1019mb 47f 50f
3:54am 17 21 mph 1019.1mb 47f 50f
3:48am 18 21 mph 1019.1mb 47f 50f
3:42am 16 21 mph 1019.2mb 47f 50f
3:36am 15 21 mph 1019.3mb 47f 50f
3:30am 15 21 mph 1019.4mb 47f 50f
3:24am 14 22 mph 1019.5mb 47f 50f
3:18am 16 21 mph 1019.5mb 47f -
3:12am 16 21 mph 1019.6mb 47f 51f
3:06am 15 20 mph 1019.6mb 47f 50f
3:00am 13 17 mph 1019.7mb 47f 50f
2:54am 13 20 mph 1019.8mb 47f 50f
2:48am 16 22 mph 1019.8mb 47f 50f
2:42am 16 20 mph 1019.7mb 47f 50f
2:36am 8 15 mph 1019.9mb 47f 49f
2:30am 10 14 mph 1019.8mb 47f 49f
2:24am 13 15 mph 1019.8mb 47f 49f
2:18am 13 15 mph 1019.8mb 47f 49f
2:12am 11 15 mph 1019.7mb 47f 49f
2:06am 13 14 mph 1019.8mb 47f 49f
2:00am 13 14 mph 1019.9mb 47f 48f
1:54am 13 14 mph 1019.8mb 47f 48f
1:48am 13 16 mph 1019.8mb 47f 48f
1:42am 14 17 mph 1019.9mb 47f 48f
1:36am 15 17 mph 1019.9mb 47f 48f
1:30am 14 16 mph 1019.9mb 47f 48f
1:24am 15 17 mph 1020mb 47f 48f
1:18am 14 16 mph 1020mb 47f 48f
1:12am 14 17 mph 1020.1mb 47f 48f
1:06am 14 16 mph 1020.1mb 47f 48f
1:00am 15 17 mph 1020.1mb 46f 48f
12:54am 15 17 mph 1020.3mb 46f 48f
12:48am 15 18 mph 1020.4mb 46f 48f
12:42am 17 18 mph 1020.4mb 46f 48f
12:36am 16 20 mph 1020.5mb 46f 48f
12:30am 16 18 mph 1020.5mb 46f 48f
12:24am 16 18 mph 1020.6mb 46f 48f
12:18am 15 16 mph 1020.7mb 46f 48f
12:12am 14 15 mph 1020.8mb 46f 48f
12:06am 14 15 mph 1020.9mb 46f 48f
12:00am 11 14 mph - - -
Sat 12/08 11:54pm 14 17 mph 1021mb 46f 48f
11:48pm 14 15 mph 1021.1mb 46f 47f
11:42pm 14 15 mph 1021.2mb 46f 47f
11:36pm 13 15 mph 1021.3mb 46f 47f
11:30pm 14 15 mph 1021.3mb 46f 47f
11:24pm 15 16 mph 1021.4mb 46f 47f
11:18pm 15 17 mph 1021.5mb 46f 47f
11:12pm 15 17 mph 1021.6mb 46f 47f
11:06pm 17 20 mph 1021.6mb 46f 47f
11:00pm 16 18 mph 1021.5mb 46f 47f
10:54pm 15 17 mph 1021.7mb 45f 47f
10:48pm 15 17 mph 1021.9mb 45f 47f
10:42pm 15 18 mph 1021.9mb 45f 47f
10:36pm 14 17 mph 1022mb 45f 47f
10:30pm 17 21 mph 1021.9mb 45f 47f
10:24pm 16 20 mph 1021.6mb 45f 47f
10:18pm 18 21 mph 1021.8mb 45f 47f
10:12pm 17 20 mph 1022mb 45f 47f
10:06pm 16 18 mph 1022mb 45f 47f
10:00pm 16 18 mph 1022.2mb 45f 47f
9:54pm 16 18 mph 1022.2mb 45f 47f
9:48pm 15 16 mph 1022.2mb 45f 47f
9:42pm 14 17 mph 1022.3mb 45f 47f
9:36pm 11 15 mph 1022.3mb 45f 47f
9:30pm 13 15 mph 1022.3mb 45f 47f
9:24pm 13 15 mph 1022.3mb 45f 47f
9:18pm 11 14 mph 1022.2mb 45f 47f
9:12pm 13 15 mph 1022.2mb 45f 46f
9:06pm 13 15 mph 1022.3mb 45f 46f
9:00pm 11 16 mph 1022.5mb 45f 46f
8:54pm 14 16 mph 1022.5mb 45f 46f
8:48pm 14 15 mph 1022.5mb 45f 47f
8:42pm 11 14 mph 1022.5mb 45f 47f
8:36pm 13 17 mph 1022.4mb 45f 47f
8:30pm 13 15 mph - - -
8:24pm 13 14 mph 1022.3mb 45f 47f
8:18pm 10 13 mph 1022.4mb 45f 47f
8:12pm 10 14 mph 1022.4mb 45f 47f
8:06pm 13 15 mph 1022.5mb 45f 47f
8:00pm 15 17 mph 1022.5mb 45f 47f
7:54pm 16 18 mph 1022.5mb 45f 47f
7:48pm 17 21 mph 1022.3mb 45f 47f
7:42pm 17 22 mph 1022.3mb 45f 47f
7:36pm 20 24 mph 1022.3mb 45f 47f
7:30pm 18 22 mph - - -
7:24pm 17 20 mph 1022.5mb 46f 47f
7:18pm 18 20 mph 1022.8mb 46f 47f
7:12pm 16 21 mph 1022.9mb 46f 47f
7:06pm 16 18 mph 1023mb 46f 48f
7:00pm 16 18 mph 1023mb 46f 48f
6:54pm 15 18 mph 1023.1mb 46f 48f
6:48pm 15 17 mph 1023.2mb 46f 48f
6:42pm 16 18 mph 1023.2mb 46f 48f
6:36pm 15 18 mph 1023.3mb 46f 48f
6:30pm 16 18 mph 1023.5mb 46f 48f
6:24pm 16 18 mph 1023.6mb 46f 48f
6:18pm 16 18 mph 1023.5mb 46f 48f
6:12pm 17 20 mph 1023.5mb 46f 48f
6:06pm 17 21 mph 1023.5mb 46f 48f
6:00pm 16 20 mph 1023.5mb 46f 48f
5:54pm 15 17 mph 1023.6mb 46f 48f
5:48pm 16 18 mph 1023.7mb 46f 48f
5:42pm 14 15 mph 1024mb 46f 48f
5:36pm 13 14 mph 1024.2mb 46f 48f
5:30pm 9 10 mph 1024.2mb 46f 48f
5:24pm 9 11 mph 1024.3mb 46f 48f
5:18pm 8 9 mph 1024.4mb 46f 48f
5:12pm 8 9 mph 1024.6mb 47f 48f
5:06pm 9 9 mph 1024.6mb 47f 49f
5:00pm 9 10 mph - - -
4:42pm 7 8 mph 1024.8mb 47f 49f
4:36pm 7 8 mph 1024.7mb 47f 49f
4:30pm 7 8 mph 1024.8mb 47f -
4:24pm 8 8 mph 1024.7mb 47f 49f
4:18pm 7 8 mph 1024.7mb 47f 49f
4:12pm 8 9 mph 1024.8mb 47f 50f
4:06pm 7 8 mph 1024.8mb 47f 50f
4:00pm 6 7 mph 1024.9mb 47f 49f
3:54pm 6 7 mph 1024.9mb 47f 49f
3:48pm 5 8 mph 1024.9mb 47f 49f
3:42pm 7 8 mph 1024.8mb 47f 50f
3:36pm 8 8 mph 1024.9mb 47f 49f
3:30pm 5 7 mph 1024.9mb 47f 48f
3:24pm 7 7 mph 1025mb 47f 48f
3:18pm 6 6 mph 1025mb 47f 48f
3:12pm 6 7 mph 1025mb 47f 49f
3:06pm 6 8 mph 1024.9mb 47f 49f
3:00pm 7 8 mph 1025mb 47f 49f
2:54pm 6 6 mph 1025mb 47f 49f
2:48pm 5 6 mph 1025.2mb 47f 49f
2:42pm 6 6 mph 1025.2mb 47f 49f
2:36pm 6 8 mph 1025.1mb 47f 49f
2:30pm 7 9 mph 1025.1mb 47f 49f
2:24pm 9 10 mph 1024.9mb 47f 49f
2:18pm 9 9 mph 1024.9mb 47f 49f
2:12pm 9 10 mph 1024.9mb 47f 49f
2:06pm 9 10 mph 1024.9mb 47f 49f
2:00pm 9 10 mph 1024.9mb 47f 49f
1:54pm 7 8 mph 1024.9mb 47f 49f
1:48pm 5 6 mph 1025mb 47f 49f
1:42pm 2 5 mph 1025.1mb 47f 49f
1:36pm 2 3 mph 1025.1mb 47f 49f
1:30pm 1 2 mph 1025.1mb 47f 49f
1:24pm 2 3 mph 1025.1mb 47f 49f
1:18pm 2 6 mph 1025mb 47f 49f
1:12pm 2 5 mph 1025.2mb 47f 49f
1:06pm 2 6 mph 1025.3mb 47f 49f
1:00pm 3 6 mph 1025.3mb 47f 49f
12:54pm 2 8 mph 1025.3mb 47f 49f
12:48pm 8 9 mph 1025.4mb 47f 49f
12:42pm 9 11 mph 1025.4mb 47f 49f
12:36pm 10 13 mph 1025.5mb 47f 49f
12:30pm 9 10 mph 1025.6mb 47f 49f
12:24pm 10 11 mph 1025.6mb 47f 49f
12:18pm 8 10 mph 1025.7mb 47f 49f
12:12pm 9 10 mph 1025.7mb 47f 49f
12:06pm 9 11 mph 1025.8mb 47f 49f
12:00pm 10 13 mph 1025.8mb 47f -
11:54am 10 13 mph 1025.7mb 47f 48f
11:48am 10 13 mph 1025.7mb 47f 48f
11:42am 8 9 mph 1025.8mb 47f 48f
11:36am 7 8 mph 1025.8mb 47f 48f
11:30am 6 6 mph 1025.9mb 47f 47f
11:24am 6 7 mph 1025.9mb 47f 47f
11:18am 7 7 mph 1025.9mb 47f 47f
11:12am 6 7 mph 1026mb 47f 47f
11:06am 7 8 mph 1026.1mb 47f 47f
11:00am 7 8 mph 1026.2mb 47f 47f
10:54am 7 7 mph 1026.3mb 47f 47f
10:48am 7 8 mph 1026.2mb 47f 47f
10:42am 6 7 mph 1026.3mb 47f 47f
10:36am 7 8 mph 1026.3mb 47f 46f
10:30am 6 8 mph 1026.3mb 47f 46f
10:24am 8 9 mph 1026.4mb 47f 46f
10:18am 9 11 mph 1026.3mb 47f 46f
10:12am 10 11 mph 1026.1mb 47f 46f
10:06am 9 11 mph 1026.1mb 47f 46f
10:00am 10 11 mph 1026mb 47f 46f
9:54am 9 11 mph 1026mb 46f 46f
9:48am 9 10 mph 1025.9mb 46f 46f
9:42am 9 10 mph 1025.8mb 46f 46f
9:36am 8 9 mph 1025.8mb 46f 45f
9:30am 7 9 mph 1025.8mb 46f 45f
9:24am 8 9 mph 1025.7mb 46f 45f
9:18am 8 9 mph 1025.7mb 45f 45f
9:12am 9 10 mph 1025.6mb 45f 45f
9:06am 9 10 mph 1025.5mb 45f 45f
9:00am 8 9 mph 1025.5mb 45f 45f
8:54am 8 8 mph 1025.4mb 45f 45f
8:48am 8 9 mph 1025.4mb 45f 44f
8:42am 8 10 mph 1025.4mb 45f 44f
8:36am 9 10 mph 1025.3mb 45f 44f
8:30am 8 10 mph 1025.2mb 45f 44f
8:24am 8 10 mph 1025.1mb 45f 44f
8:18am 9 10 mph 1025mb 45f 44f
8:12am 9 11 mph 1024.8mb 45f 44f
8:06am 10 11 mph 1024.7mb 45f 44f
8:00am 9 11 mph 1024.5mb 45f 44f
7:54am 10 11 mph 1024.4mb 45f 44f
7:48am 9 10 mph 1024.4mb 45f 44f
7:42am 9 11 mph 1024.3mb 45f 44f
7:36am 9 13 mph 1024.3mb 45f 44f
7:30am 9 11 mph 1024.2mb 45f 44f
7:24am 11 13 mph 1024.1mb 45f 44f
7:18am 10 13 mph 1024.1mb 45f 44f
7:12am 10 13 mph 1024.1mb 45f 44f
7:06am 10 11 mph 1024.1mb 45f 44f
7:00am 9 10 mph 1024.1mb 45f 44f
6:54am 8 10 mph 1024.1mb 45f 44f
6:48am 9 11 mph 1024mb 45f 45f
6:42am 9 11 mph 1024mb 45f 44f
6:36am 9 10 mph 1024mb 45f 44f
6:30am 8 10 mph 1023.9mb 45f 45f
6:24am 9 9 mph 1023.9mb 45f 44f
6:18am 7 9 mph 1024mb 45f 44f
6:12am 7 8 mph 1024mb 45f 44f
6:06am 7 7 mph 1023.9mb 45f 44f
6:00am 6 7 mph 1023.9mb 45f 45f
5:12am 6 8 mph 1023.6mb 46f 45f
5:06am 7 8 mph 1023.5mb 46f 45f
5:00am 7 8 mph 1023.4mb 46f 45f
4:54am 5 7 mph 1023.4mb 46f 45f
4:48am 6 6 mph 1023.4mb 46f 44f
4:42am 5 6 mph 1023.5mb 46f 44f
4:36am 6 7 mph 1023.5mb 46f 44f
4:30am 7 7 mph 1023.3mb 46f 44f
4:24am 6 7 mph 1023.2mb 46f 44f
4:18am 6 8 mph 1023.1mb 46f 44f
4:12am 7 8 mph 1023.1mb 46f 44f
4:06am 8 8 mph 1023.1mb 46f 45f
4:00am 8 10 mph 1023.1mb 46f 45f
3:54am 8 9 mph 1023.1mb 46f 45f
3:48am 9 11 mph 1023mb 46f 44f
3:42am 9 10 mph 1023mb 46f 44f
3:36am 9 11 mph 1023mb 46f 44f
3:30am 9 11 mph 1022.9mb 46f 44f
3:24am 10 11 mph 1022.7mb 46f 45f
3:18am 9 10 mph 1022.7mb 47f 45f
3:12am 9 10 mph 1022.7mb 47f 45f
3:06am 9 10 mph 1022.7mb 47f 45f
3:00am 9 11 mph 1022.6mb 47f 45f
2:54am 9 10 mph 1022.6mb 47f 45f
2:48am 9 10 mph 1022.6mb 47f 45f
2:42am 9 10 mph 1022.6mb 47f 45f
2:36am 9 9 mph 1022.6mb 47f 45f
2:30am 8 9 mph 1022.6mb 47f 45f
2:24am 9 10 mph 1022.5mb 47f 45f
2:18am 9 10 mph 1022.3mb 47f 45f
2:12am 9 13 mph 1022.2mb 47f 45f
2:06am 9 10 mph 1022.1mb 47f 45f
2:00am 7 9 mph 1022.1mb 47f 45f
1:54am 6 9 mph 1022mb 47f 45f
1:48am 7 11 mph 1021.9mb 47f 45f
1:42am 8 11 mph 1021.8mb 47f 45f
1:36am 10 11 mph 1021.7mb 47f 45f
1:30am 8 10 mph 1021.8mb 47f 45f
1:24am 8 9 mph 1021.8mb 47f 44f
1:18am 9 10 mph 1021.7mb 47f 44f
1:12am 8 11 mph 1021.6mb 47f 44f
1:06am 10 14 mph 1021.5mb 47f 44f
1:00am 9 13 mph 1021.5mb 47f 44f
12:48am 11 14 mph 1021.4mb 47f 44f
12:42am 11 13 mph 1021.4mb 47f 44f
12:36am 13 13 mph 1021.3mb 47f 43f
12:30am 11 14 mph 1021.3mb 47f 43f
12:24am 11 14 mph 1021.3mb 47f 44f
12:18am 11 13 mph 1021.3mb 47f 44f
12:12am 10 13 mph 1021.4mb 46f 44f
12:06am 10 13 mph 1021.3mb 46f 44f
12:00am 11 14 mph 1021.3mb 46f 44f
Fri 12/07 11:54pm 11 13 mph 1021.3mb 46f 44f
11:48pm 10 13 mph - - -
11:36pm 10 11 mph 1021.4mb 46f 44f
11:30pm 10 11 mph 1021.4mb 45f 44f
11:24pm 10 13 mph 1021.4mb 45f 44f
11:18pm 9 11 mph 1021.3mb 45f 44f
11:12pm 9 11 mph 1021.1mb 45f 44f
11:06pm 9 11 mph 1021.1mb 45f 44f
11:00pm 9 11 mph 1021mb 45f 44f
10:54pm 10 13 mph 1020.9mb 44f 44f
10:48pm 10 13 mph 1020.7mb 44f 44f
10:42pm 11 14 mph 1020.7mb 44f 44f
10:36pm 11 14 mph 1020.6mb 43f 44f
10:30pm 10 11 mph 1020.6mb 43f -
10:24pm 10 11 mph 1020.5mb 43f 44f
10:18pm 10 13 mph 1020.4mb 43f 44f
10:12pm 11 13 mph 1020.4mb 43f 44f
10:06pm 11 13 mph 1020.3mb 43f 44f
10:00pm 10 13 mph 1020.2mb 43f 45f
9:54pm 11 13 mph 1020.2mb 43f 45f
9:48pm 10 13 mph 1020.1mb 43f 45f
9:42pm 10 11 mph 1020.1mb 43f 45f
9:36pm 9 10 mph 1020mb 43f 45f
9:30pm 9 10 mph 1020mb 43f 45f
9:24pm 9 13 mph 1019.9mb 43f 45f
9:18pm 10 11 mph 1019.9mb 43f 44f
9:12pm 9 10 mph 1019.9mb 43f 44f
9:06pm 10 13 mph 1019.9mb 43f 45f
9:00pm 10 11 mph 1019.9mb 43f 45f
8:54pm 10 13 mph 1019.8mb 42f 44f
8:48pm 10 13 mph 1019.8mb 42f 45f
8:42pm 10 13 mph 1019.8mb 42f 44f
8:36pm 10 11 mph 1019.8mb 42f 45f
8:30pm 10 13 mph 1019.7mb 42f 44f
8:24pm 10 11 mph 1019.7mb 42f 44f
8:18pm 9 11 mph 1019.7mb 43f 44f
8:12pm 10 13 mph 1019.6mb 43f 44f
8:06pm 9 10 mph 1019.6mb 43f 44f
8:00pm 10 11 mph 1019.6mb 43f 44f
7:54pm 10 11 mph 1019.5mb 43f 44f
7:48pm 10 11 mph 1019.5mb 43f 44f
7:42pm 10 13 mph 1019.5mb 43f 44f
7:36pm 11 13 mph 1019.5mb 43f 44f
7:30pm 11 14 mph 1019.5mb 43f 44f
7:24pm 11 14 mph 1019.6mb 43f 44f
7:18pm 11 14 mph 1019.6mb 43f 44f
7:12pm 11 13 mph 1019.6mb 43f 44f
7:06pm 11 14 mph 1019.5mb 43f 44f
7:00pm 10 14 mph 1019.5mb 43f 44f
6:54pm 10 13 mph 1019.5mb 43f 44f
6:48pm 10 13 mph 1019.5mb 43f 44f
6:42pm 11 13 mph 1019.4mb 43f 44f
6:36pm 11 13 mph 1019.4mb 43f 44f
6:30pm 10 13 mph 1019.4mb 43f 44f
6:24pm 10 13 mph 1019.4mb 43f 44f
6:18pm 10 11 mph 1019.4mb 43f 44f
6:12pm 10 13 mph 1019.4mb 44f 44f
6:06pm 10 13 mph 1019.4mb 44f 44f
6:00pm 10 14 mph 1019.5mb 44f 44f
5:54pm 11 14 mph 1019.5mb 44f 44f
5:48pm 11 14 mph 1019.4mb 44f 44f
5:42pm 11 14 mph 1019.3mb 44f 44f
5:36pm 11 13 mph 1019.3mb 44f 44f
5:30pm 11 14 mph 1019.4mb 45f 44f
5:24pm 11 14 mph 1019.4mb 45f 44f
5:18pm 11 14 mph 1019.4mb 45f 44f
5:12pm 11 13 mph 1019.4mb 45f 44f
5:06pm 10 11 mph 1019.4mb 45f 44f
5:00pm 10 11 mph 1019.4mb 45f 45f
4:54pm 10 10 mph 1019.4mb 45f 45f
4:48pm 9 10 mph 1019.4mb 45f 45f
4:42pm 8 10 mph 1019.3mb 46f 45f
4:36pm 8 9 mph 1019.2mb 46f 45f
4:30pm 9 11 mph 1019.2mb 46f 45f
4:24pm 9 11 mph 1019.1mb 46f 45f
4:18pm 10 11 mph 1019.1mb 46f 45f
4:12pm 10 13 mph 1019.1mb 46f 45f
4:06pm 9 11 mph 1019mb 46f 45f
4:00pm 10 13 mph 1019mb - -
3:54pm 11 13 mph 1018.9mb 46f 45f
3:48pm 9 11 mph 1018.8mb 46f 45f
3:42pm 10 13 mph 1018.7mb 46f 45f
3:36pm 10 13 mph 1018.7mb 46f 45f
3:30pm 11 13 mph 1018.6mb 46f 45f
3:24pm 11 14 mph 1018.5mb 46f 45f
3:18pm 13 14 mph 1018.4mb 46f 45f
3:12pm 11 14 mph 1018.4mb 46f 45f
3:06pm 11 14 mph 1018.4mb 46f 45f
3:00pm 13 14 mph 1018.4mb 46f 45f
2:54pm 13 15 mph 1018.4mb 46f 45f
2:48pm 13 14 mph 1018.4mb 46f -
2:42pm 14 16 mph 1018.4mb 46f 45f
2:36pm 13 14 mph 1018.4mb 46f 45f
2:30pm 13 16 mph 1018.4mb 46f 45f
2:24pm 14 15 mph 1018.3mb 46f 45f
2:18pm 14 15 mph 1018.3mb 46f 45f
2:12pm 14 17 mph 1018.3mb 46f 45f
2:06pm 14 17 mph 1018.3mb 47f 45f
2:00pm 14 15 mph 1018.3mb 47f 45f
1:54pm 14 16 mph 1018.3mb 47f 45f
1:48pm 13 16 mph 1018.3mb 47f 45f
1:42pm 15 16 mph 1018.3mb 47f 45f
1:36pm 14 17 mph 1018.3mb 47f 45f
1:30pm 14 17 mph 1018.3mb 47f 45f
1:24pm 15 17 mph 1018.3mb 47f 45f
1:18pm 15 17 mph 1018.2mb 47f 45f
1:12pm 15 17 mph 1018.1mb 48f 44f
1:06pm 14 16 mph 1018.1mb 48f 44f
1:00pm 14 16 mph 1018.3mb 48f 44f
12:54pm 14 15 mph 1018.3mb 48f 44f
12:48pm 15 16 mph 1018.4mb 48f 44f
12:42pm 14 15 mph 1018.5mb 48f 44f
12:36pm 13 14 mph 1018.5mb 48f 44f
12:30pm 13 14 mph 1018.6mb - -
12:24pm 11 14 mph 1018.8mb 48f 43f
12:18pm 11 14 mph 1018.9mb 48f 43f
12:12pm 11 14 mph 1018.8mb 48f 43f
12:06pm 13 15 mph 1018.8mb 48f 43f
12:00pm 13 15 mph 1018.7mb 48f 43f
11:54am 14 16 mph 1018.7mb 48f 43f
11:48am 14 16 mph 1018.7mb 48f 43f
11:42am 13 15 mph 1018.8mb 47f 42f
11:36am 14 15 mph 1018.9mb 47f 42f
11:30am 13 15 mph 1019mb 47f 42f
11:24am 14 15 mph 1019mb 47f 42f
11:18am 14 15 mph 1019mb 47f 42f
11:12am 13 14 mph 1019.1mb 47f 42f
11:06am 13 14 mph 1019.2mb 47f 41f
11:00am 13 15 mph - - -
10:54am 13 14 mph 1019.3mb 47f 41f
10:48am 10 11 mph 1019.3mb 47f 41f
10:42am 9 11 mph 1019.3mb 47f 40f
10:36am 9 11 mph 1019.3mb 47f 39f
10:30am 10 13 mph 1019.4mb 47f 39f
10:24am 11 14 mph 1019.4mb 47f 40f
10:18am 13 14 mph 1019.4mb 47f 40f
10:12am 13 15 mph 1019.3mb 47f 40f
10:06am 11 16 mph 1019.2mb 47f 40f
10:00am 14 16 mph 1019.2mb 47f 40f
9:48am 15 16 mph 1019.1mb 47f 39f
9:42am 14 15 mph 1019.1mb 47f 39f
9:36am 14 15 mph 1019.1mb 46f 39f
9:30am 14 14 mph 1019mb 46f 39f
9:24am 8 9 mph 1019mb 46f 38f
9:18am 7 9 mph 1019.1mb 46f 37f
9:12am 8 11 mph 1018.9mb 46f 37f
9:06am 9 13 mph 1018.8mb 45f 37f
9:00am 9 14 mph 1018.8mb 45f 37f
8:54am 10 17 mph 1018.7mb 45f 38f
8:48am 15 17 mph 1018.6mb 45f 38f
8:42am 16 18 mph 1018.6mb 44f 38f
8:36am 15 16 mph 1018.6mb 44f 38f
8:30am 14 16 mph 1018.6mb 44f 38f
8:24am 9 13 mph 1018.5mb 44f 37f
8:18am 11 16 mph 1018.5mb 44f 37f
8:12am 14 17 mph 1018.5mb 44f 38f
8:06am 14 16 mph 1018.4mb 44f 38f
8:00am 14 17 mph - - -
7:54am 15 17 mph 1018.4mb 43f 37f
7:48am 15 18 mph 1018.3mb 43f 38f
7:42am 15 18 mph 1018.2mb 42f 38f
7:36am 14 16 mph 1018.2mb 42f 38f
7:30am 10 13 mph 1018.2mb 42f 38f
7:24am  -  mph 1018.2mb 43f 38f
7:18am  -  mph 1018mb 43f 38f
7:12am 10 13 mph 1018mb 43f 38f
7:06am 8 9 mph 1018.1mb 43f 37f
7:00am 8 9 mph 1018mb 43f 37f
6:54am 8 10 mph 1017.8mb 43f 37f
6:48am 9 10 mph 1017.8mb 43f 36f
6:42am 9 11 mph 1017.7mb 43f 36f
6:36am 9 13 mph 1017.8mb 43f 36f
6:30am 10 11 mph 1017.8mb 43f 36f
6:24am 11 13 mph 1017.7mb 43f 36f
6:18am 10 13 mph 1017.7mb 42f 36f
6:12am 11 14 mph 1017.8mb 43f 36f
6:06am 11 14 mph 1017.8mb 43f 37f
6:00am 11 14 mph 1017.8mb 43f 37f
5:42am 13 16 mph 1017.8mb 43f 38f
5:36am 14 16 mph 1017.8mb 43f 38f
5:30am 13 15 mph 1017.7mb 43f 39f
5:24am 14 17 mph 1017.7mb 43f 38f
5:18am 14 17 mph 1017.6mb 43f 38f
5:12am 15 17 mph 1017.6mb 43f 38f
5:06am 10 14 mph 1017.6mb 43f 38f
5:00am 10 16 mph 1017.6mb 44f 38f
4:54am 14 16 mph 1017.6mb 44f 38f
4:48am 14 17 mph 1017.6mb 44f 39f
4:42am 14 17 mph 1017.5mb 44f 38f
4:36am 14 16 mph 1017.5mb 44f 38f
4:30am 13 16 mph 1017.4mb - -
4:24am 15 17 mph 1017.5mb 44f 38f
4:18am 15 17 mph 1017.4mb 44f 39f
4:12am 13 16 mph 1017.3mb 44f 38f
4:06am 10 11 mph 1017.3mb 44f 38f
4:00am 10 13 mph 1017.4mb 44f 38f
3:54am 10 13 mph 1017.4mb 45f 38f
3:48am 10 13 mph 1017.4mb 45f 37f
3:42am 10 13 mph 1017.4mb 45f 37f
3:36am 10 11 mph 1017.4mb 46f 37f
3:30am 10 13 mph 1017.3mb 45f 37f